Columbia, South Carolina
Current Conditions -  °F | °C
As of 1:53 AM on Friday 31 Oct 2014 (Local Time) from KCUB Reporting Station
Clear Clear  
Wind Chill: 11°   Ceiling: Unl
Heat Index: 11°   Visibility: 9mi
Dew Point:   Wind: 0mph
Humidity: 77%   Direction: NA
Pressure: 29.95"   Gusts: NA
Location:  34°N, 81.04°W
Report Text: KCUB 310553Z AUTO 00000KT 9SM CLR 11/07 A2995 RMK AO2 SLP140 T01060067 10144 20106 58007
Loading
Personal Weather Stations






























Interactive Weather Map
Tropical Storm Tracking
New forecast layout! Learn more

10-Day Weather Forecast

Advertisements
Track Severe Weather on mobile